sensor_id;sensor_type;location;lat;lon;timestamp;pressure;altitude;pressure_sealevel;temperature;humidity
34696;BME280;20918;51.138;17.370;2023-10-09T00:01:17;101030.33;;;3.26;78.15
34696;BME280;20918;51.138;17.370;2023-10-09T00:04:18;101037.27;;;3.30;78.39
34696;BME280;20918;51.138;17.370;2023-10-09T00:07:20;101040.98;;;3.35;78.35
34696;BME280;20918;51.138;17.370;2023-10-09T00:10:23;101039.52;;;3.41;78.38
34696;BME280;20918;51.138;17.370;2023-10-09T00:13:46;101036.35;;;3.47;78.36
34696;BME280;20918;51.138;17.370;2023-10-09T00:17:00;101047.20;;;3.50;78.46
34696;BME280;20918;51.138;17.370;2023-10-09T00:20:21;101044.19;;;3.53;78.32
34696;BME280;20918;51.138;17.370;2023-10-09T00:23:25;101041.22;;;3.55;78.47
34696;BME280;20918;51.138;17.370;2023-10-09T00:26:28;101031.75;;;3.56;78.40
34696;BME280;20918;51.138;17.370;2023-10-09T00:29:30;101009.57;;;3.53;78.68
34696;BME280;20918;51.138;17.370;2023-10-09T00:32:35;100985.92;;;3.50;78.74
34696;BME280;20918;51.138;17.370;2023-10-09T00:35:38;100986.54;;;3.46;78.60
34696;BME280;20918;51.138;17.370;2023-10-09T00:38:47;100985.31;;;3.49;79.02
34696;BME280;20918;51.138;17.370;2023-10-09T00:41:52;100995.14;;;3.54;79.15
34696;BME280;20918;51.138;17.370;2023-10-09T00:44:56;101003.98;;;3.57;79.39
34696;BME280;20918;51.138;17.370;2023-10-09T00:47:59;101005.78;;;3.60;79.34
34696;BME280;20918;51.138;17.370;2023-10-09T00:51:04;101018.80;;;3.62;79.31
34696;BME280;20918;51.138;17.370;2023-10-09T00:54:19;101016.44;;;3.66;79.61
34696;BME280;20918;51.138;17.370;2023-10-09T00:57:20;101010.73;;;3.67;79.58
34696;BME280;20918;51.138;17.370;2023-10-09T01:00:26;101009.34;;;3.70;79.73
34696;BME280;20918;51.138;17.370;2023-10-09T01:03:50;101007.63;;;3.72;79.76
34696;BME280;20918;51.138;17.370;2023-10-09T01:06:58;100995.37;;;3.72;79.80
34696;BME280;20918;51.138;17.370;2023-10-09T01:10:21;100987.59;;;3.68;79.48
34696;BME280;20918;51.138;17.370;2023-10-09T01:13:24;100979.42;;;3.64;80.08
34696;BME280;20918;51.138;17.370;2023-10-09T01:16:39;100971.16;;;3.65;80.18
34696;BME280;20918;51.138;17.370;2023-10-09T01:19:44;100973.33;;;3.64;80.61
34696;BME280;20918;51.138;17.370;2023-10-09T01:22:53;100968.44;;;3.67;80.75
34696;BME280;20918;51.138;17.370;2023-10-09T01:25:56;100966.21;;;3.71;80.87
34696;BME280;20918;51.138;17.370;2023-10-09T01:28:57;100956.88;;;3.75;80.95
34696;BME280;20918;51.138;17.370;2023-10-09T01:32:00;100949.00;;;3.77;81.17
34696;BME280;20918;51.138;17.370;2023-10-09T01:35:07;100940.19;;;3.80;81.22
34696;BME280;20918;51.138;17.370;2023-10-09T01:38:20;100937.20;;;3.83;81.16
34696;BME280;20918;51.138;17.370;2023-10-09T01:41:31;100935.08;;;3.91;81.64
34696;BME280;20918;51.138;17.370;2023-10-09T01:44:36;100921.83;;;4.01;81.75
34696;BME280;20918;51.138;17.370;2023-10-09T01:47:53;100933.77;;;4.11;81.81
34696;BME280;20918;51.138;17.370;2023-10-09T01:50:57;100944.10;;;4.16;82.01
34696;BME280;20918;51.138;17.370;2023-10-09T01:53:58;100945.07;;;4.22;82.37
34696;BME280;20918;51.138;17.370;2023-10-09T01:57:00;100936.25;;;4.28;82.38
34696;BME280;20918;51.138;17.370;2023-10-09T02:00:21;100931.50;;;4.36;82.40
34696;BME280;20918;51.138;17.370;2023-10-09T02:03:30;100930.38;;;4.42;82.33
34696;BME280;20918;51.138;17.370;2023-10-09T02:06:31;100928.08;;;4.47;82.40
34696;BME280;20918;51.138;17.370;2023-10-09T02:09:32;100922.61;;;4.55;82.49
34696;BME280;20918;51.138;17.370;2023-10-09T02:12:35;100914.71;;;4.61;82.40
34696;BME280;20918;51.138;17.370;2023-10-09T02:15:38;100915.89;;;4.63;82.46
34696;BME280;20918;51.138;17.370;2023-10-09T02:18:42;100905.98;;;4.62;82.24
34696;BME280;20918;51.138;17.370;2023-10-09T02:21:59;100894.05;;;4.63;82.46
34696;BME280;20918;51.138;17.370;2023-10-09T02:25:01;100884.60;;;4.62;82.51
34696;BME280;20918;51.138;17.370;2023-10-09T02:28:05;100873.30;;;4.61;82.49
34696;BME280;20918;51.138;17.370;2023-10-09T02:31:14;100859.73;;;4.65;82.93
34696;BME280;20918;51.138;17.370;2023-10-09T02:34:23;100864.24;;;4.70;82.99
34696;BME280;20918;51.138;17.370;2023-10-09T02:37:26;100861.88;;;4.74;82.93
34696;BME280;20918;51.138;17.370;2023-10-09T02:40:28;100855.61;;;4.73;82.82
34696;BME280;20918;51.138;17.370;2023-10-09T02:43:34;100843.14;;;4.68;82.88
34696;BME280;20918;51.138;17.370;2023-10-09T02:46:45;100837.09;;;4.63;82.85
34696;BME280;20918;51.138;17.370;2023-10-09T02:49:47;100847.80;;;4.63;83.05
34696;BME280;20918;51.138;17.370;2023-10-09T02:52:54;100842.80;;;4.63;83.42
34696;BME280;20918;51.138;17.370;2023-10-09T02:56:01;100825.52;;;4.63;83.30
34696;BME280;20918;51.138;17.370;2023-10-09T02:59:24;100818.63;;;4.64;83.57
34696;BME280;20918;51.138;17.370;2023-10-09T03:02:30;100812.64;;;4.66;83.79
34696;BME280;20918;51.138;17.370;2023-10-09T03:05:32;100822.31;;;4.68;84.19
34696;BME280;20918;51.138;17.370;2023-10-09T03:08:37;100815.14;;;4.70;84.32
34696;BME280;20918;51.138;17.370;2023-10-09T03:11:38;100812.42;;;4.77;84.13
34696;BME280;20918;51.138;17.370;2023-10-09T03:14:42;100809.84;;;4.83;84.22
34696;BME280;20918;51.138;17.370;2023-10-09T03:17:43;100803.84;;;4.91;84.47
34696;BME280;20918;51.138;17.370;2023-10-09T03:20:46;100798.36;;;4.99;84.30
34696;BME280;20918;51.138;17.370;2023-10-09T03:23:48;100794.61;;;5.04;84.37
34696;BME280;20918;51.138;17.370;2023-10-09T03:26:52;100794.81;;;5.11;84.52
34696;BME280;20918;51.138;17.370;2023-10-09T03:29:56;100806.45;;;5.19;84.56
34696;BME280;20918;51.138;17.370;2023-10-09T03:32:57;100799.50;;;5.28;84.80
34696;BME280;20918;51.138;17.370;2023-10-09T03:36:00;100796.20;;;5.34;84.77
34696;BME280;20918;51.138;17.370;2023-10-09T03:39:01;100790.68;;;5.42;84.94
34696;BME280;20918;51.138;17.370;2023-10-09T03:42:08;100788.42;;;5.49;84.95
34696;BME280;20918;51.138;17.370;2023-10-09T03:45:20;100784.14;;;5.52;85.12
34696;BME280;20918;51.138;17.370;2023-10-09T03:48:30;100768.34;;;5.50;85.39
34696;BME280;20918;51.138;17.370;2023-10-09T03:51:37;100757.21;;;5.46;85.18
34696;BME280;20918;51.138;17.370;2023-10-09T03:54:40;100750.85;;;5.45;85.26
34696;BME280;20918;51.138;17.370;2023-10-09T03:57:42;100736.71;;;5.48;85.20
34696;BME280;20918;51.138;17.370;2023-10-09T04:00:49;100722.09;;;5.49;85.48
34696;BME280;20918;51.138;17.370;2023-10-09T04:03:50;100727.80;;;5.50;85.59
34696;BME280;20918;51.138;17.370;2023-10-09T04:07:02;100720.59;;;5.55;85.63
34696;BME280;20918;51.138;17.370;2023-10-09T04:10:04;100705.02;;;5.56;85.80
34696;BME280;20918;51.138;17.370;2023-10-09T04:13:25;100693.89;;;5.57;85.93
34696;BME280;20918;51.138;17.370;2023-10-09T04:16:33;100689.45;;;5.58;85.89
34696;BME280;20918;51.138;17.370;2023-10-09T04:19:34;100683.17;;;5.59;86.12
34696;BME280;20918;51.138;17.370;2023-10-09T04:22:48;100674.99;;;5.61;86.63
34696;BME280;20918;51.138;17.370;2023-10-09T04:26:00;100666.20;;;5.63;86.54
34696;BME280;20918;51.138;17.370;2023-10-09T04:29:11;100657.83;;;5.67;86.32
34696;BME280;20918;51.138;17.370;2023-10-09T04:32:19;100654.17;;;5.69;86.69
34696;BME280;20918;51.138;17.370;2023-10-09T04:35:20;100653.45;;;5.71;86.89
34696;BME280;20918;51.138;17.370;2023-10-09T04:38:23;100644.27;;;5.74;86.85
34696;BME280;20918;51.138;17.370;2023-10-09T04:41:27;100638.52;;;5.76;87.08
34696;BME280;20918;51.138;17.370;2023-10-09T04:45:15;100637.10;;;5.78;87.33
34696;BME280;20918;51.138;17.370;2023-10-09T04:48:16;100646.16;;;5.81;87.16
34696;BME280;20918;51.138;17.370;2023-10-09T04:51:33;100641.63;;;5.85;87.29
34696;BME280;20918;51.138;17.370;2023-10-09T04:54:39;100651.67;;;5.89;87.28
34696;BME280;20918;51.138;17.370;2023-10-09T04:57:54;100668.78;;;5.93;87.17
34696;BME280;20918;51.138;17.370;2023-10-09T05:01:04;100688.73;;;5.98;87.39
34696;BME280;20918;51.138;17.370;2023-10-09T05:04:12;100694.33;;;6.03;87.50
34696;BME280;20918;51.138;17.370;2023-10-09T05:07:35;100689.45;;;6.07;87.47
34696;BME280;20918;51.138;17.370;2023-10-09T05:10:59;100693.39;;;6.10;87.72
34696;BME280;20918;51.138;17.370;2023-10-09T05:14:01;100688.74;;;6.13;87.75
34696;BME280;20918;51.138;17.370;2023-10-09T05:17:30;100682.69;;;6.16;87.62
34696;BME280;20918;51.138;17.370;2023-10-09T05:20:35;100680.19;;;6.17;87.75
34696;BME280;20918;51.138;17.370;2023-10-09T05:23:54;100678.13;;;6.18;87.87
34696;BME280;20918;51.138;17.370;2023-10-09T05:27:17;100675.90;;;6.20;87.86
34696;BME280;20918;51.138;17.370;2023-10-09T05:30:40;100675.42;;;6.21;88.02
34696;BME280;20918;51.138;17.370;2023-10-09T05:33:51;100673.42;;;6.22;88.03
34696;BME280;20918;51.138;17.370;2023-10-09T05:36:53;100667.53;;;6.21;88.15
34696;BME280;20918;51.138;17.370;2023-10-09T05:40:14;100669.98;;;6.21;88.24
34696;BME280;20918;51.138;17.370;2023-10-09T05:46:52;100656.98;;;6.19;88.61
34696;BME280;20918;51.138;17.370;2023-10-09T05:50:12;100650.25;;;6.18;88.72
34696;BME280;20918;51.138;17.370;2023-10-09T05:53:16;100647.13;;;6.15;89.00
34696;BME280;20918;51.138;17.370;2023-10-09T05:56:58;100646.88;;;6.14;89.07
34696;BME280;20918;51.138;17.370;2023-10-09T06:00:17;100639.45;;;6.13;89.31
34696;BME280;20918;51.138;17.370;2023-10-09T06:03:59;100632.28;;;6.08;89.86
34696;BME280;20918;51.138;17.370;2023-10-09T06:07:16;100624.92;;;6.05;89.84
34696;BME280;20918;51.138;17.370;2023-10-09T06:10:50;100624.42;;;6.05;90.11
34696;BME280;20918;51.138;17.370;2023-10-09T06:14:06;100624.02;;;6.06;89.77
34696;BME280;20918;51.138;17.370;2023-10-09T06:17:30;100626.83;;;6.06;90.06
34696;BME280;20918;51.138;17.370;2023-10-09T06:20:46;100623.03;;;6.07;90.27
34696;BME280;20918;51.138;17.370;2023-10-09T06:24:12;100619.73;;;6.09;90.43
34696;BME280;20918;51.138;17.370;2023-10-09T06:27:17;100613.41;;;6.09;90.63
34696;BME280;20918;51.138;17.370;2023-10-09T06:30:30;100610.24;;;6.09;90.77
34696;BME280;20918;51.138;17.370;2023-10-09T06:33:39;100611.98;;;6.11;91.14
34696;BME280;20918;51.138;17.370;2023-10-09T06:37:21;100606.13;;;6.12;91.18
34696;BME280;20918;51.138;17.370;2023-10-09T06:40:24;100608.64;;;6.13;91.15
34696;BME280;20918;51.138;17.370;2023-10-09T06:43:43;100612.59;;;6.17;91.20
34696;BME280;20918;51.138;17.370;2023-10-09T06:46:55;100616.36;;;6.22;91.08
34696;BME280;20918;51.138;17.370;2023-10-09T06:50:04;100593.18;;;6.26;90.95
34696;BME280;20918;51.138;17.370;2023-10-09T06:53:37;100575.61;;;6.28;91.04
34696;BME280;20918;51.138;17.370;2023-10-09T06:57:19;100554.31;;;6.29;91.41
34696;BME280;20918;51.138;17.370;2023-10-09T07:01:05;100534.29;;;6.26;91.64
34696;BME280;20918;51.138;17.370;2023-10-09T07:04:30;100516.15;;;6.27;91.99
34696;BME280;20918;51.138;17.370;2023-10-09T07:07:33;100502.08;;;6.25;92.14
34696;BME280;20918;51.138;17.370;2023-10-09T07:10:35;100502.93;;;6.25;92.13
34696;BME280;20918;51.138;17.370;2023-10-09T07:13:40;100512.23;;;6.28;92.23
34696;BME280;20918;51.138;17.370;2023-10-09T07:16:46;100520.39;;;6.31;92.47
34696;BME280;20918;51.138;17.370;2023-10-09T07:20:08;100522.34;;;6.33;92.65
34696;BME280;20918;51.138;17.370;2023-10-09T07:23:35;100525.20;;;6.37;92.47
34696;BME280;20918;51.138;17.370;2023-10-09T07:26:38;100522.98;;;6.40;92.42
34696;BME280;20918;51.138;17.370;2023-10-09T07:29:47;100513.48;;;6.46;92.58
34696;BME280;20918;51.138;17.370;2023-10-09T07:32:53;100504.69;;;6.52;92.88
34696;BME280;20918;51.138;17.370;2023-10-09T07:35:55;100497.17;;;6.52;92.66
34696;BME280;20918;51.138;17.370;2023-10-09T07:38:58;100504.02;;;6.52;92.78
34696;BME280;20918;51.138;17.370;2023-10-09T07:42:09;100501.55;;;6.52;92.82
34696;BME280;20918;51.138;17.370;2023-10-09T07:45:25;100497.80;;;6.55;92.96
34696;BME280;20918;51.138;17.370;2023-10-09T07:48:26;100496.22;;;6.57;93.08
34696;BME280;20918;51.138;17.370;2023-10-09T07:51:40;100501.83;;;6.63;92.99
34696;BME280;20918;51.138;17.370;2023-10-09T07:55:04;100506.75;;;6.71;93.02
34696;BME280;20918;51.138;17.370;2023-10-09T07:58:23;100508.89;;;6.71;93.16
34696;BME280;20918;51.138;17.370;2023-10-09T08:01:31;100507.11;;;6.75;92.94
34696;BME280;20918;51.138;17.370;2023-10-09T08:08:25;100491.17;;;6.77;93.33
34696;BME280;20918;51.138;17.370;2023-10-09T08:11:30;100489.95;;;6.77;93.15
34696;BME280;20918;51.138;17.370;2023-10-09T08:14:43;100482.70;;;6.77;93.56
34696;BME280;20918;51.138;17.370;2023-10-09T08:18:06;100478.52;;;6.85;93.58
34696;BME280;20918;51.138;17.370;2023-10-09T08:21:36;100469.97;;;6.94;93.84
34696;BME280;20918;51.138;17.370;2023-10-09T08:25:03;100467.97;;;6.97;93.63
34696;BME280;20918;51.138;17.370;2023-10-09T08:28:14;100469.34;;;6.97;93.39
34696;BME280;20918;51.138;17.370;2023-10-09T08:31:50;100466.31;;;7.00;93.20
34696;BME280;20918;51.138;17.370;2023-10-09T08:35:00;100470.52;;;6.98;93.05
34696;BME280;20918;51.138;17.370;2023-10-09T08:38:06;100464.70;;;6.96;92.82
34696;BME280;20918;51.138;17.370;2023-10-09T08:41:22;100461.39;;;6.95;92.77
34696;BME280;20918;51.138;17.370;2023-10-09T08:44:34;100452.78;;;6.97;92.89
34696;BME280;20918;51.138;17.370;2023-10-09T08:47:37;100450.02;;;7.01;93.18
34696;BME280;20918;51.138;17.370;2023-10-09T08:58:09;100458.52;;;7.04;92.77
34696;BME280;20918;51.138;17.370;2023-10-09T09:01:53;100456.34;;;7.01;92.42
34696;BME280;20918;51.138;17.370;2023-10-09T09:05:24;100453.92;;;7.00;92.38
34696;BME280;20918;51.138;17.370;2023-10-09T09:08:40;100456.86;;;7.01;92.15
34696;BME280;20918;51.138;17.370;2023-10-09T09:11:51;100464.35;;;7.02;92.18
34696;BME280;20918;51.138;17.370;2023-10-09T09:15:14;100471.23;;;7.00;91.60
34696;BME280;20918;51.138;17.370;2023-10-09T09:18:59;100473.16;;;6.95;91.55
34696;BME280;20918;51.138;17.370;2023-10-09T09:22:52;100472.37;;;6.93;91.57
34696;BME280;20918;51.138;17.370;2023-10-09T09:30:05;100463.82;;;6.90;91.38
34696;BME280;20918;51.138;17.370;2023-10-09T09:33:31;100466.45;;;6.90;91.46
34696;BME280;20918;51.138;17.370;2023-10-09T09:37:29;100466.61;;;6.88;91.25
34696;BME280;20918;51.138;17.370;2023-10-09T09:41:06;100454.23;;;6.89;91.61
34696;BME280;20918;51.138;17.370;2023-10-09T09:44:39;100447.21;;;6.93;91.35
34696;BME280;20918;51.138;17.370;2023-10-09T09:48:28;100449.64;;;6.97;91.41
34696;BME280;20918;51.138;17.370;2023-10-09T09:55:39;100442.02;;;7.04;91.20
34696;BME280;20918;51.138;17.370;2023-10-09T10:02:55;100432.58;;;7.01;90.91
34696;BME280;20918;51.138;17.370;2023-10-09T10:06:18;100420.88;;;7.02;91.44
34696;BME280;20918;51.138;17.370;2023-10-09T10:10:03;100420.34;;;7.10;91.63
34696;BME280;20918;51.138;17.370;2023-10-09T10:13:54;100418.54;;;7.11;91.32
34696;BME280;20918;51.138;17.370;2023-10-09T10:17:15;100405.49;;;7.03;91.14
34696;BME280;20918;51.138;17.370;2023-10-09T10:29:17;100396.46;;;7.06;91.65
34696;BME280;20918;51.138;17.370;2023-10-09T10:32:58;100411.11;;;7.05;91.39
34696;BME280;20918;51.138;17.370;2023-10-09T10:39:53;100417.95;;;7.06;91.29
34696;BME280;20918;51.138;17.370;2023-10-09T10:49:54;100406.35;;;7.03;91.33
34696;BME280;20918;51.138;17.370;2023-10-09T10:53:34;100402.74;;;7.00;91.07
34696;BME280;20918;51.138;17.370;2023-10-09T10:56:48;100404.57;;;7.00;91.58
34696;BME280;20918;51.138;17.370;2023-10-09T10:59:55;100403.39;;;7.05;91.51
34696;BME280;20918;51.138;17.370;2023-10-09T11:03:20;100396.36;;;7.11;91.43
34696;BME280;20918;51.138;17.370;2023-10-09T11:06:31;100390.79;;;7.20;91.47
34696;BME280;20918;51.138;17.370;2023-10-09T11:20:31;100380.09;;;7.43;91.21
34696;BME280;20918;51.138;17.370;2023-10-09T11:23:36;100379.90;;;7.51;91.05
34696;BME280;20918;51.138;17.370;2023-10-09T11:26:54;100379.02;;;7.56;90.88
34696;BME280;20918;51.138;17.370;2023-10-09T11:30:14;100390.08;;;7.61;90.59
34696;BME280;20918;51.138;17.370;2023-10-09T11:33:22;100386.08;;;7.66;90.46
34696;BME280;20918;51.138;17.370;2023-10-09T11:36:34;100387.16;;;7.68;90.28
34696;BME280;20918;51.138;17.370;2023-10-09T11:39:38;100389.73;;;7.62;90.10
34696;BME280;20918;51.138;17.370;2023-10-09T11:47:02;100376.24;;;7.64;89.98
34696;BME280;20918;51.138;17.370;2023-10-09T11:50:15;100367.52;;;7.65;90.17
34696;BME280;20918;51.138;17.370;2023-10-09T11:53:18;100360.02;;;7.70;90.07
34696;BME280;20918;51.138;17.370;2023-10-09T11:56:43;100358.64;;;7.75;90.17
34696;BME280;20918;51.138;17.370;2023-10-09T12:03:44;100355.65;;;7.98;90.06
34696;BME280;20918;51.138;17.370;2023-10-09T12:07:10;100346.95;;;8.04;89.38
34696;BME280;20918;51.138;17.370;2023-10-09T12:10:26;100349.70;;;8.06;89.33
34696;BME280;20918;51.138;17.370;2023-10-09T12:13:51;100346.85;;;8.11;89.07
34696;BME280;20918;51.138;17.370;2023-10-09T12:16:59;100358.52;;;8.18;89.21
34696;BME280;20918;51.138;17.370;2023-10-09T12:20:06;100356.30;;;8.26;88.99
34696;BME280;20918;51.138;17.370;2023-10-09T12:23:35;100357.73;;;8.33;88.43
34696;BME280;20918;51.138;17.370;2023-10-09T12:26:38;100352.83;;;8.42;88.49
34696;BME280;20918;51.138;17.370;2023-10-09T12:30:04;100349.27;;;8.52;88.17
34696;BME280;20918;51.138;17.370;2023-10-09T12:33:29;100350.14;;;8.50;87.54
34696;BME280;20918;51.138;17.370;2023-10-09T12:36:59;100352.91;;;8.51;87.80
34696;BME280;20918;51.138;17.370;2023-10-09T12:40:16;100353.21;;;8.59;87.79
34696;BME280;20918;51.138;17.370;2023-10-09T12:43:24;100343.41;;;8.58;86.91
34696;BME280;20918;51.138;17.370;2023-10-09T12:46:49;100340.95;;;8.60;86.97
34696;BME280;20918;51.138;17.370;2023-10-09T12:50:00;100330.56;;;8.62;87.01
34696;BME280;20918;51.138;17.370;2023-10-09T12:53:38;100334.02;;;8.55;86.78
34696;BME280;20918;51.138;17.370;2023-10-09T12:56:52;100326.33;;;8.48;86.64
34696;BME280;20918;51.138;17.370;2023-10-09T13:00:13;100316.83;;;8.37;86.44
34696;BME280;20918;51.138;17.370;2023-10-09T13:07:25;100315.78;;;8.26;86.79
34696;BME280;20918;51.138;17.370;2023-10-09T13:10:32;100329.59;;;8.23;87.06
34696;BME280;20918;51.138;17.370;2023-10-09T13:13:56;100333.60;;;8.16;86.89
34696;BME280;20918;51.138;17.370;2023-10-09T13:17:35;100330.83;;;8.10;87.15
34696;BME280;20918;51.138;17.370;2023-10-09T13:21:00;100325.50;;;8.05;87.05
34696;BME280;20918;51.138;17.370;2023-10-09T13:24:24;100326.38;;;8.02;87.18
34696;BME280;20918;51.138;17.370;2023-10-09T13:28:05;100321.09;;;7.98;87.19
34696;BME280;20918;51.138;17.370;2023-10-09T13:31:32;100308.57;;;8.02;87.47
34696;BME280;20918;51.138;17.370;2023-10-09T13:34:41;100297.40;;;8.01;87.32
34696;BME280;20918;51.138;17.370;2023-10-09T13:41:41;100304.77;;;8.01;87.40
34696;BME280;20918;51.138;17.370;2023-10-09T13:49:01;100303.98;;;8.03;87.12
34696;BME280;20918;51.138;17.370;2023-10-09T13:52:09;100311.27;;;8.11;87.26
34696;BME280;20918;51.138;17.370;2023-10-09T13:55:18;100311.09;;;8.20;87.48
34696;BME280;20918;51.138;17.370;2023-10-09T14:02:03;100307.73;;;8.22;86.98
34696;BME280;20918;51.138;17.370;2023-10-09T14:05:51;100304.52;;;8.24;86.90
34696;BME280;20918;51.138;17.370;2023-10-09T14:09:19;100306.48;;;8.25;87.06
34696;BME280;20918;51.138;17.370;2023-10-09T14:12:37;100312.64;;;8.33;87.13
34696;BME280;20918;51.138;17.370;2023-10-09T14:15:49;100314.23;;;8.39;86.75
34696;BME280;20918;51.138;17.370;2023-10-09T14:18:56;100328.02;;;8.39;86.13
34696;BME280;20918;51.138;17.370;2023-10-09T14:22:25;100328.13;;;8.39;86.17
34696;BME280;20918;51.138;17.370;2023-10-09T14:25:39;100331.09;;;8.43;86.23
34696;BME280;20918;51.138;17.370;2023-10-09T14:32:50;100340.20;;;8.36;85.69
34696;BME280;20918;51.138;17.370;2023-10-09T14:35:59;100343.00;;;8.30;85.81
34696;BME280;20918;51.138;17.370;2023-10-09T14:39:15;100346.85;;;8.29;85.81
34696;BME280;20918;51.138;17.370;2023-10-09T14:42:19;100358.21;;;8.30;85.99
34696;BME280;20918;51.138;17.370;2023-10-09T14:45:38;100366.00;;;8.37;86.06
34696;BME280;20918;51.138;17.370;2023-10-09T14:48:40;100369.80;;;8.40;86.12
34696;BME280;20918;51.138;17.370;2023-10-09T14:51:43;100381.30;;;8.45;85.92
34696;BME280;20918;51.138;17.370;2023-10-09T14:55:10;100384.34;;;8.48;85.80
34696;BME280;20918;51.138;17.370;2023-10-09T14:58:24;100384.60;;;8.46;85.37
34696;BME280;20918;51.138;17.370;2023-10-09T15:01:26;100380.20;;;8.38;85.62
34696;BME280;20918;51.138;17.370;2023-10-09T15:04:36;100373.58;;;8.28;85.50
34696;BME280;20918;51.138;17.370;2023-10-09T15:07:55;100369.17;;;8.22;85.72
34696;BME280;20918;51.138;17.370;2023-10-09T15:11:37;100371.89;;;8.20;85.79
34696;BME280;20918;51.138;17.370;2023-10-09T15:15:11;100367.51;;;8.19;85.91
34696;BME280;20918;51.138;17.370;2023-10-09T15:18:32;100370.83;;;8.20;85.87
34696;BME280;20918;51.138;17.370;2023-10-09T15:21:34;100368.20;;;8.24;85.95
34696;BME280;20918;51.138;17.370;2023-10-09T15:24:46;100371.11;;;8.26;85.89
34696;BME280;20918;51.138;17.370;2023-10-09T15:27:47;100375.85;;;8.30;86.04
34696;BME280;20918;51.138;17.370;2023-10-09T15:30:51;100376.76;;;8.33;85.99
34696;BME280;20918;51.138;17.370;2023-10-09T15:33:53;100375.71;;;8.35;86.15
34696;BME280;20918;51.138;17.370;2023-10-09T15:36:54;100378.27;;;8.36;85.75
34696;BME280;20918;51.138;17.370;2023-10-09T15:43:29;100381.83;;;8.32;85.56
34696;BME280;20918;51.138;17.370;2023-10-09T15:46:36;100375.56;;;8.24;85.59
34696;BME280;20918;51.138;17.370;2023-10-09T15:49:43;100381.06;;;8.22;85.49
34696;BME280;20918;51.138;17.370;2023-10-09T15:56:22;100394.95;;;8.18;85.55
34696;BME280;20918;51.138;17.370;2023-10-09T15:59:32;100404.70;;;8.14;85.77
34696;BME280;20918;51.138;17.370;2023-10-09T16:02:51;100407.73;;;8.14;85.83
34696;BME280;20918;51.138;17.370;2023-10-09T16:06:07;100416.23;;;8.11;85.93
34696;BME280;20918;51.138;17.370;2023-10-09T16:09:15;100411.55;;;8.04;85.96
34696;BME280;20918;51.138;17.370;2023-10-09T16:12:47;100402.47;;;7.98;85.99
34696;BME280;20918;51.138;17.370;2023-10-09T16:15:51;100402.64;;;7.96;86.15
34696;BME280;20918;51.138;17.370;2023-10-09T16:19:25;100395.72;;;7.93;86.31
34696;BME280;20918;51.138;17.370;2023-10-09T16:22:40;100401.08;;;7.86;86.09
34696;BME280;20918;51.138;17.370;2023-10-09T16:25:41;100406.65;;;7.83;86.13
34696;BME280;20918;51.138;17.370;2023-10-09T16:29:26;100408.61;;;7.85;86.12
34696;BME280;20918;51.138;17.370;2023-10-09T16:32:34;100418.48;;;7.87;86.24
34696;BME280;20918;51.138;17.370;2023-10-09T16:35:44;100427.38;;;7.90;86.36
34696;BME280;20918;51.138;17.370;2023-10-09T16:38:54;100436.14;;;7.90;86.22
34696;BME280;20918;51.138;17.370;2023-10-09T16:41:58;100443.84;;;7.91;86.27
34696;BME280;20918;51.138;17.370;2023-10-09T16:49:13;100443.98;;;7.89;85.89
34696;BME280;20918;51.138;17.370;2023-10-09T16:55:44;100425.90;;;7.83;85.93
34696;BME280;20918;51.138;17.370;2023-10-09T16:58:53;100437.39;;;7.79;85.75
34696;BME280;20918;51.138;17.370;2023-10-09T17:02:05;100450.84;;;7.74;85.68
34696;BME280;20918;51.138;17.370;2023-10-09T17:05:38;100455.73;;;7.76;86.12
34696;BME280;20918;51.138;17.370;2023-10-09T17:09:13;100459.83;;;7.82;86.05
34696;BME280;20918;51.138;17.370;2023-10-09T17:16:11;100468.02;;;7.84;85.93
34696;BME280;20918;51.138;17.370;2023-10-09T17:19:17;100464.27;;;7.81;85.82
34696;BME280;20918;51.138;17.370;2023-10-09T17:25:52;100458.22;;;7.80;86.29
34696;BME280;20918;51.138;17.370;2023-10-09T17:29:17;100456.54;;;7.83;86.23
34696;BME280;20918;51.138;17.370;2023-10-09T17:35:48;100446.41;;;7.93;86.35
34696;BME280;20918;51.138;17.370;2023-10-09T17:39:11;100455.31;;;7.96;86.28
34696;BME280;20918;51.138;17.370;2023-10-09T17:42:34;100457.71;;;7.99;86.34
34696;BME280;20918;51.138;17.370;2023-10-09T17:45:37;100461.34;;;8.01;86.46
34696;BME280;20918;51.138;17.370;2023-10-09T17:49:02;100463.69;;;8.01;86.50
34696;BME280;20918;51.138;17.370;2023-10-09T17:52:24;100469.75;;;8.04;86.58
34696;BME280;20918;51.138;17.370;2023-10-09T17:55:30;100475.34;;;8.04;86.60
34696;BME280;20918;51.138;17.370;2023-10-09T17:58:35;100480.98;;;8.02;86.50
34696;BME280;20918;51.138;17.370;2023-10-09T18:01:36;100482.14;;;7.97;86.47
34696;BME280;20918;51.138;17.370;2023-10-09T18:04:37;100484.45;;;7.95;86.65
34696;BME280;20918;51.138;17.370;2023-10-09T18:08:15;100494.30;;;7.86;86.82
34696;BME280;20918;51.138;17.370;2023-10-09T18:11:39;100488.83;;;7.80;86.85
34696;BME280;20918;51.138;17.370;2023-10-09T18:18:37;100488.23;;;7.73;87.01
34696;BME280;20918;51.138;17.370;2023-10-09T18:21:44;100488.08;;;7.71;87.13
34696;BME280;20918;51.138;17.370;2023-10-09T18:24:50;100486.33;;;7.73;87.26
34696;BME280;20918;51.138;17.370;2023-10-09T18:28:00;100480.88;;;7.77;87.20
34696;BME280;20918;51.138;17.370;2023-10-09T18:31:42;100467.59;;;7.72;87.05
34696;BME280;20918;51.138;17.370;2023-10-09T18:35:17;100464.02;;;7.64;87.22
34696;BME280;20918;51.138;17.370;2023-10-09T18:38:22;100464.23;;;7.62;87.52
34696;BME280;20918;51.138;17.370;2023-10-09T18:41:32;100465.92;;;7.61;87.53
34696;BME280;20918;51.138;17.370;2023-10-09T18:48:59;100478.13;;;7.60;87.83
34696;BME280;20918;51.138;17.370;2023-10-09T18:52:16;100481.36;;;7.64;87.89